createdAt,value
2022-11-13T00:03:13.440Z,42.40
2022-11-13T00:09:31.564Z,42.30
2022-11-13T00:15:45.165Z,41.60
2022-11-13T00:21:59.512Z,41.80
2022-11-13T00:28:13.583Z,42.00
2022-11-13T00:34:46.581Z,42.10
2022-11-13T00:40:41.506Z,42.40
2022-11-13T00:46:53.142Z,42.30
2022-11-13T00:53:05.242Z,41.50
2022-11-13T00:59:19.987Z,41.70
2022-11-13T01:05:36.754Z,42.00
2022-11-13T01:11:49.008Z,42.80
2022-11-13T01:18:02.601Z,42.60
2022-11-13T01:24:19.907Z,41.80
2022-11-13T01:30:33.792Z,42.00
2022-11-13T01:36:51.809Z,42.20
2022-11-13T01:43:02.841Z,42.30
2022-11-13T01:49:28.622Z,42.40
2022-11-13T01:55:41.889Z,42.40
2022-11-13T02:01:54.623Z,42.30
2022-11-13T02:08:12.059Z,42.20
2022-11-13T02:14:22.977Z,42.50
2022-11-13T02:20:40.789Z,42.50
2022-11-13T02:26:56.910Z,42.60
2022-11-13T02:33:23.849Z,42.00
2022-11-13T02:39:37.928Z,42.20
2022-11-13T02:45:52.847Z,41.70
2022-11-13T02:52:08.603Z,41.80
2022-11-13T02:58:26.331Z,41.60
2022-11-13T03:05:10.779Z,42.10
2022-11-13T03:11:02.310Z,41.40
2022-11-13T03:17:13.882Z,41.40
2022-11-13T03:23:31.891Z,41.30
2022-11-13T03:29:45.909Z,41.40
2022-11-13T03:35:59.907Z,41.20
2022-11-13T03:42:14.136Z,41.40
2022-11-13T03:48:29.544Z,41.90
2022-11-13T03:54:47.486Z,42.00
2022-11-13T04:01:03.436Z,41.80
2022-11-13T04:07:20.646Z,41.50
2022-11-13T04:13:32.804Z,41.70
2022-11-13T04:19:48.656Z,41.80
2022-11-13T04:25:59.595Z,41.70
2022-11-13T04:32:16.428Z,41.70
2022-11-13T04:38:33.230Z,41.80
2022-11-13T04:44:44.422Z,41.80
2022-11-13T04:50:59.005Z,41.70
2022-11-13T04:57:10.165Z,41.60
2022-11-13T05:03:22.409Z,41.40
2022-11-13T05:09:33.315Z,41.70
2022-11-13T05:15:48.745Z,41.70
2022-11-13T05:22:04.354Z,41.60
2022-11-13T05:28:18.743Z,41.50
2022-11-13T05:34:33.540Z,41.60
2022-11-13T05:40:47.125Z,41.70
2022-11-13T05:47:01.917Z,41.50
2022-11-13T05:53:15.117Z,41.50
2022-11-13T05:59:29.548Z,41.50
2022-11-13T06:05:47.865Z,41.50
2022-11-13T06:12:04.541Z,41.70
2022-11-13T06:18:22.503Z,41.60
2022-11-13T06:24:38.745Z,41.50
2022-11-13T06:30:51.814Z,41.50
2022-11-13T06:37:07.344Z,41.60
2022-11-13T06:43:24.351Z,41.70
2022-11-13T06:49:35.436Z,41.60
2022-11-13T06:55:52.757Z,41.60
2022-11-13T07:02:06.925Z,41.70
2022-11-13T07:08:22.836Z,41.80
2022-11-13T07:14:40.673Z,41.80
2022-11-13T07:20:54.337Z,41.80
2022-11-13T07:27:09.993Z,41.80
2022-11-13T07:33:25.613Z,41.80
2022-11-13T07:39:35.176Z,41.90
2022-11-13T07:45:49.628Z,41.90
2022-11-13T07:52:03.131Z,41.80
2022-11-13T07:58:13.080Z,41.90
2022-11-13T08:04:28.729Z,41.80
2022-11-13T08:10:43.352Z,41.80
2022-11-13T08:16:57.578Z,41.80
2022-11-13T08:23:11.103Z,41.80
2022-11-13T08:29:24.045Z,41.80
2022-11-13T08:35:37.636Z,41.80
2022-11-13T08:41:50.943Z,41.90
2022-11-13T08:48:07.207Z,41.70
2022-11-13T08:54:24.176Z,41.20
2022-11-13T09:00:33.081Z,41.30
2022-11-13T09:06:47.369Z,41.50
2022-11-13T09:13:05.124Z,41.70
2022-11-13T09:19:26.525Z,41.70
2022-11-13T09:25:39.181Z,41.70
2022-11-13T09:31:52.410Z,41.70
2022-11-13T09:38:11.002Z,41.90
2022-11-13T09:44:24.317Z,41.70
2022-11-13T09:50:37.864Z,41.60
2022-11-13T09:56:54.421Z,41.70
2022-11-13T10:03:27.980Z,41.90
2022-11-13T10:09:34.241Z,42.00
2022-11-13T10:15:49.957Z,42.00
2022-11-13T10:22:26.405Z,42.10
2022-11-13T10:28:51.376Z,42.00
2022-11-13T10:34:37.954Z,41.90
2022-11-13T10:40:49.054Z,42.10
2022-11-13T10:47:22.670Z,41.70
2022-11-13T10:53:31.484Z,41.90
2022-11-13T10:59:49.541Z,42.00
2022-11-13T11:06:03.809Z,41.90
2022-11-13T11:12:30.951Z,42.00
2022-11-13T11:18:43.052Z,42.10
2022-11-13T11:31:19.947Z,42.20
2022-11-13T11:37:35.193Z,41.70
2022-11-13T11:43:51.616Z,41.70
2022-11-13T11:50:10.060Z,41.80
2022-11-13T11:56:28.164Z,41.90
2022-11-13T12:03:13.015Z,42.00
2022-11-13T12:09:29.273Z,41.90
2022-11-13T12:15:46.430Z,41.40
2022-11-13T12:22:03.259Z,41.60
2022-11-13T12:28:22.656Z,41.90
2022-11-13T12:34:42.253Z,42.00
2022-11-13T12:40:58.065Z,42.10
2022-11-13T12:47:14.312Z,42.30
2022-11-13T12:53:35.818Z,42.20
2022-11-13T12:59:53.428Z,42.10
2022-11-13T13:06:29.256Z,42.40
2022-11-13T13:13:03.843Z,42.30
2022-11-13T13:19:24.950Z,41.70
2022-11-13T13:25:40.800Z,41.70
2022-11-13T13:31:58.980Z,42.40
2022-11-13T13:38:22.911Z,42.90
2022-11-13T13:44:53.263Z,42.20
2022-11-13T13:51:11.070Z,41.70
2022-11-13T13:57:21.839Z,42.00
2022-11-13T14:03:35.683Z,42.10
2022-11-13T14:09:51.816Z,41.60
2022-11-13T14:16:10.024Z,41.90
2022-11-13T14:22:21.484Z,42.40
2022-11-13T14:28:38.954Z,43.00
2022-11-13T14:34:52.434Z,43.00
2022-11-13T14:41:06.732Z,41.80
2022-11-13T14:47:33.181Z,41.80
2022-11-13T14:53:47.112Z,41.70
2022-11-13T15:00:03.652Z,42.20
2022-11-13T15:06:25.401Z,42.40
2022-11-13T15:12:40.256Z,42.40
2022-11-13T15:19:02.656Z,41.70
2022-11-13T15:25:22.909Z,41.40
2022-11-13T15:31:40.896Z,41.50
2022-11-13T15:37:53.765Z,42.10
2022-11-13T15:44:04.669Z,41.80
2022-11-13T15:50:20.464Z,41.10
2022-11-13T15:56:32.035Z,41.20
2022-11-13T16:02:45.493Z,41.40
2022-11-13T16:08:57.118Z,41.80
2022-11-13T16:15:10.344Z,41.20
2022-11-13T16:21:22.657Z,40.80
2022-11-13T16:27:38.980Z,41.00
2022-11-13T16:33:52.808Z,41.20
2022-11-13T16:40:08.438Z,41.60
2022-11-13T16:46:32.483Z,41.40
2022-11-13T16:52:46.821Z,40.70
2022-11-13T16:59:04.321Z,40.60
2022-11-13T17:05:22.172Z,40.80
2022-11-13T17:11:40.962Z,41.00
2022-11-13T17:17:54.675Z,41.50
2022-11-13T17:24:07.645Z,41.30
2022-11-13T17:30:25.195Z,41.10
2022-11-13T17:36:37.277Z,40.80
2022-11-13T17:42:54.349Z,40.20
2022-11-13T17:49:07.632Z,40.60
2022-11-13T17:55:20.607Z,41.00
2022-11-13T18:01:40.422Z,41.00
2022-11-13T18:07:53.754Z,40.50
2022-11-13T18:14:09.208Z,40.10
2022-11-13T18:20:24.572Z,40.20
2022-11-13T18:26:39.095Z,40.30
2022-11-13T18:32:49.914Z,40.50
2022-11-13T18:39:03.942Z,40.10
2022-11-13T18:45:19.672Z,39.80
2022-11-13T18:51:34.563Z,39.90
2022-11-13T18:57:47.776Z,40.40
2022-11-13T19:04:21.776Z,40.40
2022-11-13T19:10:22.985Z,40.10
2022-11-13T19:16:38.469Z,40.00
2022-11-13T19:22:47.193Z,39.70
2022-11-13T19:29:00.691Z,39.70
2022-11-13T19:35:12.601Z,40.20
2022-11-13T19:41:31.334Z,40.00
2022-11-13T19:47:44.420Z,39.70
2022-11-13T19:53:58.560Z,39.50
2022-11-13T20:00:09.672Z,39.50
2022-11-13T20:06:19.123Z,40.50
2022-11-13T20:12:34.982Z,40.20
2022-11-13T20:18:48.345Z,40.10
2022-11-13T20:25:03.867Z,39.60
2022-11-13T20:31:22.740Z,39.20
2022-11-13T20:37:35.296Z,39.30
2022-11-13T20:43:57.434Z,40.00
2022-11-13T20:50:16.559Z,39.70
2022-11-13T20:56:33.379Z,39.00
2022-11-13T21:02:49.370Z,38.90
2022-11-13T21:09:02.688Z,39.30
2022-11-13T21:15:15.455Z,40.90
2022-11-13T21:21:29.874Z,40.40
2022-11-13T21:27:41.007Z,39.80
2022-11-13T21:34:00.777Z,40.40
2022-11-13T21:40:19.419Z,39.80
2022-11-13T21:46:36.072Z,39.80
2022-11-13T21:52:49.637Z,39.90
2022-11-13T21:59:08.370Z,39.90
2022-11-13T22:05:22.843Z,40.20
2022-11-13T22:11:38.404Z,39.70
2022-11-13T22:17:56.254Z,39.60
2022-11-13T22:24:09.739Z,40.60
2022-11-13T22:30:25.918Z,39.30
2022-11-13T22:36:39.031Z,39.30
2022-11-13T22:42:53.270Z,40.00
2022-11-13T22:49:07.963Z,40.40
2022-11-13T22:55:25.531Z,40.50
2022-11-13T23:01:43.932Z,39.70
2022-11-13T23:08:05.849Z,39.70
2022-11-13T23:14:20.628Z,40.00
2022-11-13T23:20:36.073Z,40.40
2022-11-13T23:26:47.904Z,40.60
2022-11-13T23:33:06.162Z,41.10
2022-11-13T23:39:18.237Z,41.20
2022-11-13T23:45:33.812Z,40.00
2022-11-13T23:51:46.973Z,39.90
2022-11-13T23:58:04.227Z,39.90
